Atalissa, Iowa
Current Conditions -  °F | °C
As of 10:15 AM on Thursday 29 Jan 2015 (Local Time) from KMUT Reporting Station
Overcast Overcast  
Wind Chill: 27°   Ceiling: 2000
Heat Index: 37°   Visibility: 10mi
Dew Point: 32°   Wind: 21mph
Humidity: 81%   Direction: 320°NW
Pressure: 30.09"   Gusts: NA
Location:  41.57°N, 91.17°W
Report Text: KMUT 291615Z AUTO 32018KT 10SM OVC020 03/M00 A3009 RMK AO2
Loading
Personal Weather Stations






























Interactive Weather Map New forecast layout! Learn more

10-Day Weather Forecast

Advertisements
Track Severe Weather on mobile